createdAt,value
2022-09-01T00:00:04.942Z,18.20
2022-09-01T00:02:33.601Z,18.40
2022-09-01T00:05:00.664Z,18.20
2022-09-01T00:07:32.571Z,18.40
2022-09-01T00:10:00.615Z,18.20
2022-09-01T00:12:29.056Z,18.10
2022-09-01T00:14:56.056Z,18.10
2022-09-01T00:17:23.325Z,18.00
2022-09-01T00:19:50.362Z,18.00
2022-09-01T00:22:17.458Z,17.90
2022-09-01T00:24:44.624Z,17.90
2022-09-01T00:27:11.573Z,17.90
2022-09-01T00:29:43.443Z,17.90
2022-09-01T00:32:12.187Z,17.90
2022-09-01T00:34:39.735Z,17.90
2022-09-01T00:37:06.876Z,17.80
2022-09-01T00:39:33.919Z,17.80
2022-09-01T00:42:00.892Z,17.80
2022-09-01T00:44:29.780Z,18.40
2022-09-01T00:46:59.867Z,17.80
2022-09-01T00:49:37.371Z,17.70
2022-09-01T00:52:14.478Z,17.70
2022-09-01T00:54:49.718Z,17.70
2022-09-01T00:57:17.047Z,17.60
2022-09-01T01:00:19.206Z,17.60
2022-09-01T01:02:47.930Z,17.50
2022-09-01T01:05:15.926Z,17.50
2022-09-01T01:07:47.654Z,17.50
2022-09-01T01:10:18.704Z,17.40
2022-09-01T01:12:46.043Z,17.50
2022-09-01T01:15:14.713Z,17.40
2022-09-01T01:17:41.603Z,17.30
2022-09-01T01:20:30.570Z,17.30
2022-09-01T01:23:28.406Z,17.20
2022-09-01T01:25:59.069Z,17.20
2022-09-01T01:28:37.092Z,17.20
2022-09-01T01:31:14.451Z,17.20
2022-09-01T01:33:51.967Z,17.10
2022-09-01T01:36:40.000Z,17.00
2022-09-01T01:39:14.939Z,17.00
2022-09-01T01:41:48.736Z,16.90
2022-09-01T01:44:19.801Z,16.90
2022-09-01T01:46:51.483Z,16.80
2022-09-01T01:49:23.191Z,16.80
2022-09-01T01:51:55.994Z,16.80
2022-09-01T01:54:24.659Z,16.70
2022-09-01T01:56:51.796Z,16.70
2022-09-01T01:59:19.770Z,16.70
2022-09-01T02:01:51.319Z,16.60
2022-09-01T02:04:20.278Z,16.80
2022-09-01T02:06:48.026Z,16.60
2022-09-01T02:09:19.028Z,16.50
2022-09-01T02:11:46.263Z,16.40
2022-09-01T02:14:13.732Z,16.40
2022-09-01T02:16:41.474Z,16.50
2022-09-01T02:19:10.018Z,16.50
2022-09-01T02:21:37.056Z,16.50
2022-09-01T02:24:08.564Z,17.30
2022-09-01T02:26:40.652Z,16.50
2022-09-01T02:29:17.957Z,16.50
2022-09-01T02:31:47.640Z,16.40
2022-09-01T02:34:15.335Z,16.40
2022-09-01T02:36:50.078Z,16.30
2022-09-01T02:39:34.193Z,18.00
2022-09-01T02:42:01.621Z,16.20
2022-09-01T02:44:31.056Z,16.20
2022-09-01T02:46:59.162Z,17.60
2022-09-01T02:49:28.287Z,16.20
2022-09-01T02:51:59.581Z,16.10
2022-09-01T02:54:28.690Z,16.10
2022-09-01T02:56:55.866Z,16.10
2022-09-01T02:59:27.450Z,17.70
2022-09-01T03:01:56.412Z,16.00
2022-09-01T03:04:24.482Z,16.30
2022-09-01T03:06:55.050Z,15.90
2022-09-01T03:09:23.127Z,15.90
2022-09-01T03:11:53.059Z,15.80
2022-09-01T03:14:22.357Z,15.80
2022-09-01T03:16:49.483Z,15.70
2022-09-01T03:19:17.466Z,15.70
2022-09-01T03:21:46.475Z,15.70
2022-09-01T03:24:17.870Z,15.60
2022-09-01T03:26:50.050Z,15.60
2022-09-01T03:29:18.603Z,15.60
2022-09-01T03:31:46.319Z,17.10
2022-09-01T03:34:13.574Z,15.60
2022-09-01T03:36:50.350Z,16.80
2022-09-01T03:39:20.054Z,15.60
2022-09-01T03:41:47.145Z,15.60
2022-09-01T03:44:16.464Z,15.60
2022-09-01T03:46:44.775Z,16.30
2022-09-01T03:49:15.335Z,15.70
2022-09-01T03:51:45.104Z,15.70
2022-09-01T03:54:12.981Z,15.70
2022-09-01T03:56:41.800Z,15.70
2022-09-01T03:59:17.123Z,15.60
2022-09-01T04:01:45.400Z,15.70
2022-09-01T04:04:14.001Z,15.70
2022-09-01T04:06:43.682Z,17.40
2022-09-01T04:09:11.633Z,17.30
2022-09-01T04:11:45.035Z,16.70
2022-09-01T04:14:13.546Z,15.80
2022-09-01T04:16:59.286Z,16.70
2022-09-01T04:19:27.556Z,15.70
2022-09-01T04:21:59.620Z,15.70
2022-09-01T04:24:28.534Z,15.80
2022-09-01T04:27:01.780Z,15.80
2022-09-01T04:29:31.438Z,15.90
2022-09-01T04:32:09.824Z,15.90
2022-09-01T04:34:39.736Z,15.90
2022-09-01T04:37:21.204Z,16.10
2022-09-01T04:39:56.214Z,15.90
2022-09-01T04:42:29.950Z,15.90
2022-09-01T04:44:59.351Z,15.90
2022-09-01T04:47:35.659Z,15.90
2022-09-01T04:50:14.535Z,15.90
2022-09-01T04:52:43.136Z,15.90
2022-09-01T04:55:18.514Z,16.00
2022-09-01T04:57:49.532Z,16.50
2022-09-01T05:00:23.136Z,16.10
2022-09-01T05:03:04.261Z,16.10
2022-09-01T05:05:42.510Z,16.10
2022-09-01T05:08:23.499Z,16.10
2022-09-01T05:10:55.740Z,16.10
2022-09-01T05:13:24.199Z,16.20
2022-09-01T05:16:03.748Z,16.10
2022-09-01T05:18:30.829Z,16.10
2022-09-01T05:20:57.883Z,16.20
2022-09-01T05:23:26.687Z,16.10
2022-09-01T05:25:54.998Z,16.10
2022-09-01T05:28:25.291Z,16.50
2022-09-01T05:30:54.391Z,16.20
2022-09-01T05:33:22.323Z,16.20
2022-09-01T05:35:58.975Z,16.20
2022-09-01T05:38:26.061Z,16.20
2022-09-01T05:41:04.257Z,16.20
2022-09-01T05:43:32.448Z,16.40
2022-09-01T05:46:06.982Z,16.20
2022-09-01T05:48:40.061Z,16.20
2022-09-01T05:51:22.403Z,16.30
2022-09-01T05:53:59.120Z,16.30
2022-09-01T05:56:31.519Z,16.40
2022-09-01T06:01:50.769Z,16.50
2022-09-01T06:04:18.136Z,16.50
2022-09-01T06:07:05.777Z,16.60
2022-09-01T06:09:33.594Z,16.60
2022-09-01T06:12:01.857Z,17.80
2022-09-01T06:14:28.817Z,16.70
2022-09-01T06:16:56.373Z,16.70
2022-09-01T06:19:23.368Z,16.70
2022-09-01T06:21:50.322Z,16.70
2022-09-01T06:24:18.069Z,16.80
2022-09-01T06:26:46.303Z,16.80
2022-09-01T06:29:15.628Z,16.90
2022-09-01T06:31:45.810Z,17.00
2022-09-01T06:34:14.110Z,17.00
2022-09-01T06:36:41.220Z,17.10
2022-09-01T06:39:09.465Z,17.10
2022-09-01T06:41:39.828Z,17.20
2022-09-01T06:44:12.392Z,17.30
2022-09-01T06:46:41.674Z,17.20
2022-09-01T06:49:11.643Z,17.40
2022-09-01T06:51:38.921Z,17.30
2022-09-01T06:54:11.242Z,17.40
2022-09-01T06:56:44.615Z,17.40
2022-09-01T06:59:15.575Z,17.50
2022-09-01T07:01:42.751Z,17.50
2022-09-01T07:04:13.509Z,17.50
2022-09-01T07:09:38.841Z,17.60
2022-09-01T07:12:27.673Z,18.00
2022-09-01T07:17:55.539Z,17.80
2022-09-01T07:20:27.736Z,17.80
2022-09-01T07:26:01.397Z,18.10
2022-09-01T07:28:40.000Z,17.80
2022-09-01T07:39:51.202Z,18.40
2022-09-01T07:42:31.493Z,17.80
2022-09-01T07:45:26.955Z,17.80
2022-09-01T07:47:54.841Z,17.90
2022-09-01T07:51:34.393Z,17.90
2022-09-01T07:53:12.600Z,18.60
2022-09-01T07:55:44.307Z,19.70
2022-09-01T07:58:13.145Z,18.10
2022-09-01T08:00:43.579Z,18.20
2022-09-01T08:03:10.611Z,18.20
2022-09-01T08:05:37.871Z,18.20
2022-09-01T08:08:18.615Z,18.30
2022-09-01T08:10:49.072Z,18.30
2022-09-01T08:13:17.083Z,18.40
2022-09-01T08:18:50.138Z,18.50
2022-09-01T08:21:21.892Z,18.60
2022-09-01T08:23:52.445Z,19.00
2022-09-01T08:26:23.900Z,18.70
2022-09-01T08:28:56.166Z,18.70
2022-09-01T08:31:25.901Z,18.70
2022-09-01T08:33:53.434Z,18.80
2022-09-01T08:36:24.070Z,18.90
2022-09-01T08:38:53.591Z,19.00
2022-09-01T08:41:46.733Z,19.00
2022-09-01T08:44:57.867Z,19.00
2022-09-01T08:47:32.412Z,19.10
2022-09-01T08:50:07.103Z,19.20
2022-09-01T08:53:11.010Z,19.20
2022-09-01T08:55:45.874Z,19.30
2022-09-01T08:58:17.077Z,19.40
2022-09-01T09:00:55.108Z,19.50
2022-09-01T09:03:41.594Z,19.50
2022-09-01T09:06:22.200Z,19.60
2022-09-01T09:08:53.564Z,19.70
2022-09-01T09:11:45.754Z,19.80
2022-09-01T09:14:44.047Z,19.90
2022-09-01T09:17:13.391Z,19.90
2022-09-01T09:19:45.476Z,20.00
2022-09-01T09:22:17.531Z,20.10
2022-09-01T09:25:17.432Z,20.10
2022-09-01T09:28:00.497Z,20.20
2022-09-01T09:30:31.337Z,20.20
2022-09-01T09:33:47.615Z,20.30
2022-09-01T09:36:22.113Z,20.30
2022-09-01T09:39:13.278Z,20.50
2022-09-01T09:41:41.638Z,22.30
2022-09-01T09:44:26.678Z,20.60
2022-09-01T09:46:53.817Z,20.70
2022-09-01T09:49:40.846Z,20.90
2022-09-01T09:52:10.100Z,21.00
2022-09-01T09:55:06.875Z,21.20
2022-09-01T09:57:40.170Z,21.50
2022-09-01T10:00:20.096Z,21.80
2022-09-01T10:03:10.092Z,22.00
2022-09-01T10:05:45.353Z,22.30
2022-09-01T10:08:48.064Z,22.60
2022-09-01T10:11:44.726Z,22.80
2022-09-01T10:14:35.294Z,23.10
2022-09-01T10:17:26.358Z,23.30
2022-09-01T10:20:06.143Z,23.50
2022-09-01T10:22:36.978Z,23.60
2022-09-01T10:25:07.186Z,23.60
2022-09-01T10:27:39.427Z,23.70
2022-09-01T10:30:20.313Z,23.70
2022-09-01T10:33:00.451Z,23.70
2022-09-01T10:35:40.575Z,23.60
2022-09-01T10:38:21.580Z,23.50
2022-09-01T10:41:07.226Z,23.20
2022-09-01T10:43:45.154Z,22.90
2022-09-01T10:46:25.434Z,22.70
2022-09-01T10:49:03.579Z,22.50
2022-09-01T10:51:39.623Z,22.40
2022-09-01T10:54:51.087Z,22.40
2022-09-01T10:57:42.754Z,22.40
2022-09-01T11:00:37.297Z,22.40
2022-09-01T11:06:13.281Z,22.50
2022-09-01T11:08:58.668Z,22.50
2022-09-01T11:11:28.488Z,22.60
2022-09-01T11:13:59.026Z,22.70
2022-09-01T11:16:46.428Z,22.70
2022-09-01T11:19:37.604Z,22.90
2022-09-01T11:22:13.827Z,23.00
2022-09-01T11:24:44.213Z,23.00
2022-09-01T11:27:49.623Z,23.20
2022-09-01T11:30:56.588Z,23.30
2022-09-01T11:33:48.380Z,23.50
2022-09-01T11:36:24.648Z,23.90
2022-09-01T11:38:56.483Z,24.20
2022-09-01T11:41:48.962Z,24.40
2022-09-01T11:44:27.782Z,24.80
2022-09-01T11:47:03.856Z,25.20
2022-09-01T11:49:36.004Z,25.60
2022-09-01T11:52:04.592Z,25.90
2022-09-01T11:54:41.976Z,26.20
2022-09-01T11:57:29.580Z,26.40
2022-09-01T11:59:59.545Z,26.40
2022-09-01T12:02:36.958Z,26.20
2022-09-01T12:05:32.076Z,26.00
2022-09-01T12:08:02.742Z,25.90
2022-09-01T12:10:38.409Z,25.80
2022-09-01T12:13:11.952Z,25.70
2022-09-01T12:16:07.092Z,25.60
2022-09-01T12:18:53.639Z,25.60
2022-09-01T12:21:42.919Z,25.40
2022-09-01T12:24:15.422Z,25.20
2022-09-01T12:26:45.024Z,25.10
2022-09-01T12:29:13.990Z,25.10
2022-09-01T12:31:44.311Z,25.00
2022-09-01T12:34:33.019Z,25.00
2022-09-01T12:37:21.238Z,24.80
2022-09-01T12:39:56.332Z,24.70
2022-09-01T12:42:40.112Z,24.50
2022-09-01T12:45:10.558Z,24.40
2022-09-01T12:47:37.651Z,24.20
2022-09-01T12:50:29.649Z,24.10
2022-09-01T12:53:15.492Z,24.10
2022-09-01T12:56:17.098Z,24.20
2022-09-01T12:58:49.510Z,24.20
2022-09-01T13:01:33.783Z,24.30
2022-09-01T13:04:31.031Z,24.30
2022-09-01T13:07:07.731Z,24.30
2022-09-01T13:09:36.126Z,24.30
2022-09-01T13:12:21.113Z,24.20
2022-09-01T13:14:48.495Z,24.00
2022-09-01T13:17:16.286Z,23.90
2022-09-01T13:19:44.343Z,23.80
2022-09-01T13:22:11.639Z,23.80
2022-09-01T13:24:39.946Z,23.80
2022-09-01T13:27:22.978Z,23.80
2022-09-01T13:29:51.334Z,23.80
2022-09-01T13:32:22.555Z,23.90
2022-09-01T13:34:52.977Z,24.00
2022-09-01T13:37:21.319Z,24.10
2022-09-01T13:39:48.604Z,24.10
2022-09-01T13:42:19.232Z,24.10
2022-09-01T13:44:49.739Z,24.10
2022-09-01T13:47:34.000Z,24.00
2022-09-01T13:50:11.075Z,23.90
2022-09-01T13:52:41.503Z,23.70
2022-09-01T13:55:13.073Z,23.60
2022-09-01T13:57:40.063Z,22.30
2022-09-01T14:00:11.722Z,23.30
2022-09-01T14:02:49.150Z,23.20
2022-09-01T14:05:23.164Z,23.30
2022-09-01T14:07:50.893Z,23.40
2022-09-01T14:10:19.418Z,23.40
2022-09-01T14:12:46.600Z,23.50
2022-09-01T14:15:18.070Z,23.60
2022-09-01T14:17:53.111Z,23.60
2022-09-01T14:20:24.360Z,23.60
2022-09-01T14:22:52.155Z,23.60
2022-09-01T14:25:20.630Z,23.70
2022-09-01T14:27:48.975Z,23.80
2022-09-01T14:30:31.392Z,23.80
2022-09-01T14:33:01.138Z,23.80
2022-09-01T14:35:28.583Z,23.80
2022-09-01T14:37:56.295Z,23.80
2022-09-01T14:40:24.401Z,23.70
2022-09-01T14:42:53.185Z,23.70
2022-09-01T14:45:26.662Z,23.60
2022-09-01T14:48:00.617Z,23.60
2022-09-01T14:50:32.483Z,23.70
2022-09-01T14:53:02.094Z,23.80
2022-09-01T14:55:30.851Z,25.60
2022-09-01T14:57:59.834Z,24.00
2022-09-01T15:00:28.355Z,24.00
2022-09-01T15:02:56.560Z,23.20
2022-09-01T15:05:24.486Z,23.90
2022-09-01T15:07:52.827Z,23.80
2022-09-01T15:10:27.233Z,23.70
2022-09-01T15:12:59.992Z,23.60
2022-09-01T15:15:28.821Z,23.40
2022-09-01T15:17:56.184Z,23.30
2022-09-01T15:20:42.417Z,23.30
2022-09-01T15:23:10.072Z,23.30
2022-09-01T15:25:37.224Z,23.20
2022-09-01T15:28:06.058Z,23.20
2022-09-01T15:30:35.241Z,23.10
2022-09-01T15:33:02.304Z,23.00
2022-09-01T15:35:30.954Z,22.90
2022-09-01T15:37:58.173Z,22.80
2022-09-01T15:40:26.840Z,22.70
2022-09-01T15:42:55.019Z,22.60
2022-09-01T15:45:24.140Z,22.60
2022-09-01T15:47:51.354Z,22.50
2022-09-01T15:50:22.500Z,22.40
2022-09-01T15:53:07.209Z,22.30
2022-09-01T15:55:44.403Z,22.20
2022-09-01T15:58:14.300Z,22.10
2022-09-01T16:00:43.518Z,22.00
2022-09-01T16:03:11.249Z,21.90
2022-09-01T16:05:41.078Z,21.80
2022-09-01T16:08:11.420Z,21.90
2022-09-01T16:10:42.195Z,22.20
2022-09-01T16:13:10.838Z,22.40
2022-09-01T16:15:47.228Z,22.40
2022-09-01T16:18:41.774Z,22.50
2022-09-01T16:21:23.182Z,22.30
2022-09-01T16:23:52.514Z,22.10
2022-09-01T16:26:23.827Z,22.00
2022-09-01T16:28:57.799Z,21.80
2022-09-01T16:31:28.516Z,21.60
2022-09-01T16:34:02.143Z,21.50
2022-09-01T16:36:47.086Z,21.30
2022-09-01T16:39:34.540Z,21.20
2022-09-01T16:42:42.951Z,21.10
2022-09-01T16:45:22.369Z,21.00
2022-09-01T16:47:49.226Z,21.00
2022-09-01T16:50:26.562Z,20.90
2022-09-01T16:53:42.034Z,20.90
2022-09-01T16:56:21.852Z,20.90
2022-09-01T16:59:17.115Z,20.80
2022-09-01T17:02:15.987Z,22.70
2022-09-01T17:05:35.764Z,20.70
2022-09-01T17:08:26.162Z,20.70
2022-09-01T17:11:32.839Z,20.70
2022-09-01T17:14:02.798Z,20.60
2022-09-01T17:16:42.560Z,20.60
2022-09-01T17:19:17.873Z,20.50
2022-09-01T17:22:03.602Z,20.40
2022-09-01T17:24:40.399Z,20.40
2022-09-01T17:27:18.753Z,20.30
2022-09-01T17:29:52.742Z,20.30
2022-09-01T17:32:48.356Z,20.20
2022-09-01T17:36:04.409Z,20.20
2022-09-01T17:39:01.105Z,20.10
2022-09-01T17:42:04.588Z,20.20
2022-09-01T17:44:55.419Z,19.40
2022-09-01T17:48:06.137Z,20.00
2022-09-01T17:51:17.605Z,19.90
2022-09-01T17:54:06.647Z,19.90
2022-09-01T17:56:46.022Z,19.90
2022-09-01T17:59:43.121Z,19.80
2022-09-01T18:03:02.435Z,19.80
2022-09-01T18:05:45.989Z,19.70
2022-09-01T18:08:40.688Z,19.70
2022-09-01T18:11:16.933Z,19.70
2022-09-01T18:14:05.346Z,19.60
2022-09-01T18:17:00.309Z,19.60
2022-09-01T18:19:38.487Z,19.60
2022-09-01T18:22:10.718Z,19.70
2022-09-01T18:25:02.374Z,20.30
2022-09-01T18:27:33.433Z,19.50
2022-09-01T18:30:03.891Z,19.50
2022-09-01T18:32:58.378Z,21.70
2022-09-01T18:36:14.560Z,19.40
2022-09-01T18:38:58.487Z,19.40
2022-09-01T18:41:39.339Z,19.40
2022-09-01T18:44:26.683Z,19.40
2022-09-01T18:47:13.398Z,19.40
2022-09-01T18:50:00.372Z,19.30
2022-09-01T18:52:53.575Z,19.30
2022-09-01T18:55:23.133Z,17.50
2022-09-01T18:57:58.481Z,19.20
2022-09-01T19:00:44.282Z,19.20
2022-09-01T19:03:58.515Z,19.20
2022-09-01T19:07:14.469Z,19.10
2022-09-01T19:10:02.969Z,19.10
2022-09-01T19:12:51.602Z,19.10
2022-09-01T19:15:56.800Z,19.00
2022-09-01T19:19:05.408Z,19.00
2022-09-01T19:21:33.025Z,18.90
2022-09-01T19:24:13.560Z,18.90
2022-09-01T19:26:49.211Z,18.80
2022-09-01T19:29:24.658Z,18.80
2022-09-01T19:32:01.924Z,18.70
2022-09-01T19:34:37.066Z,18.60
2022-09-01T19:37:06.676Z,18.60
2022-09-01T19:39:39.809Z,18.60
2022-09-01T19:42:41.043Z,18.50
2022-09-01T19:45:14.449Z,18.50
2022-09-01T19:47:54.336Z,18.40
2022-09-01T19:50:33.229Z,18.40
2022-09-01T19:53:08.580Z,18.40
2022-09-01T19:55:56.452Z,18.40
2022-09-01T19:58:48.433Z,18.40
2022-09-01T20:01:36.680Z,18.40
2022-09-01T20:04:37.344Z,18.40
2022-09-01T20:07:12.420Z,18.40
2022-09-01T20:10:15.419Z,18.30
2022-09-01T20:12:59.523Z,18.30
2022-09-01T20:15:55.455Z,18.30
2022-09-01T20:18:38.283Z,18.20
2022-09-01T20:21:20.744Z,18.20
2022-09-01T20:23:59.517Z,18.10
2022-09-01T20:26:36.006Z,18.70
2022-09-01T20:29:43.315Z,18.10
2022-09-01T20:32:27.656Z,18.00
2022-09-01T20:35:03.639Z,18.00
2022-09-01T20:37:38.098Z,17.90
2022-09-01T20:40:12.891Z,17.90
2022-09-01T20:43:08.452Z,17.80
2022-09-01T20:45:35.910Z,17.80
2022-09-01T20:48:07.692Z,17.80
2022-09-01T20:50:54.180Z,17.70
2022-09-01T20:53:42.710Z,17.70
2022-09-01T20:56:27.426Z,17.60
2022-09-01T20:59:21.349Z,17.60
2022-09-01T21:02:44.420Z,17.60
2022-09-01T21:05:24.757Z,17.60
2022-09-01T21:08:49.068Z,17.60
2022-09-01T21:11:34.368Z,17.50
2022-09-01T21:14:28.311Z,17.50
2022-09-01T21:17:26.024Z,17.50
2022-09-01T21:19:52.900Z,17.50
2022-09-01T21:22:22.426Z,17.50
2022-09-01T21:24:50.239Z,17.50
2022-09-01T21:27:24.731Z,17.50
2022-09-01T21:30:01.722Z,17.50
2022-09-01T21:32:31.589Z,17.50
2022-09-01T21:34:59.102Z,18.60
2022-09-01T21:37:27.933Z,17.50
2022-09-01T21:39:56.457Z,17.50
2022-09-01T21:42:32.010Z,17.40
2022-09-01T21:45:00.757Z,17.40
2022-09-01T21:47:28.607Z,17.40
2022-09-01T21:49:56.039Z,17.40
2022-09-01T21:52:23.055Z,18.30
2022-09-01T21:54:50.099Z,17.30
2022-09-01T21:57:17.348Z,17.20
2022-09-01T21:59:44.494Z,17.30
2022-09-01T22:02:11.478Z,17.80
2022-09-01T22:04:38.851Z,17.10
2022-09-01T22:07:09.122Z,18.10
2022-09-01T22:09:36.138Z,17.00
2022-09-01T22:12:04.041Z,17.00
2022-09-01T22:14:31.036Z,17.00
2022-09-01T22:17:01.134Z,17.10
2022-09-01T22:19:34.890Z,16.90
2022-09-01T22:22:03.204Z,16.90
2022-09-01T22:24:30.374Z,16.70
2022-09-01T22:26:57.390Z,16.70
2022-09-01T22:29:25.100Z,16.70
2022-09-01T22:31:52.369Z,18.50
2022-09-01T22:34:19.442Z,17.40
2022-09-01T22:36:49.650Z,17.80
2022-09-01T22:39:18.820Z,16.50
2022-09-01T22:41:47.295Z,16.50
2022-09-01T22:44:14.265Z,16.40
2022-09-01T22:46:41.588Z,16.40
2022-09-01T22:49:09.428Z,16.40
2022-09-01T22:51:42.661Z,16.40
2022-09-01T22:54:10.879Z,16.30
2022-09-01T22:56:39.553Z,16.30
2022-09-01T22:59:11.738Z,17.40
2022-09-01T23:01:42.699Z,17.80
2022-09-01T23:04:13.235Z,16.10
2022-09-01T23:06:44.902Z,16.10
2022-09-01T23:09:13.037Z,16.00
2022-09-01T23:11:40.403Z,16.00
2022-09-01T23:14:07.337Z,15.90
2022-09-01T23:16:34.597Z,15.90
2022-09-01T23:19:02.376Z,15.80
2022-09-01T23:21:33.560Z,18.30
2022-09-01T23:24:01.877Z,15.70
2022-09-01T23:26:31.932Z,17.00
2022-09-01T23:28:59.598Z,15.60
2022-09-01T23:31:31.775Z,15.60
2022-09-01T23:33:58.786Z,15.50
2022-09-01T23:36:28.499Z,15.60
2022-09-01T23:38:56.262Z,15.50
2022-09-01T23:41:31.086Z,15.50
2022-09-01T23:44:02.787Z,16.50
2022-09-01T23:46:40.008Z,16.90
2022-09-01T23:49:08.141Z,15.50
2022-09-01T23:51:35.595Z,15.50
2022-09-01T23:54:03.167Z,15.50
2022-09-01T23:56:30.656Z,16.80
2022-09-01T23:58:59.395Z,15.50
